createdAt,value
2023-12-13T00:04:33.278Z,103027.41
2023-12-13T00:09:35.914Z,103023.81
2023-12-13T00:14:38.491Z,103003.00
2023-12-13T00:19:41.096Z,103014.50
2023-12-13T00:24:43.748Z,103006.50
2023-12-13T00:29:46.368Z,102997.25
2023-12-13T00:34:49.354Z,102981.19
2023-12-13T00:39:51.930Z,102985.56
2023-12-13T00:44:54.970Z,102979.22
2023-12-13T00:49:57.596Z,102958.78
2023-12-13T00:55:02.793Z,102961.13
2023-12-13T01:00:07.088Z,102971.44
2023-12-13T01:05:10.147Z,102954.84
2023-12-13T01:10:12.939Z,102962.16
2023-12-13T01:15:16.038Z,102965.44
2023-12-13T01:20:18.701Z,102973.38
2023-12-13T01:25:21.255Z,102969.03
2023-12-13T01:30:23.779Z,102966.81
2023-12-13T01:35:26.383Z,102962.91
2023-12-13T01:40:28.865Z,102969.69
2023-12-13T01:45:31.389Z,102953.81
2023-12-13T01:50:33.994Z,102956.91
2023-12-13T01:55:36.572Z,102947.69
2023-12-13T02:00:41.728Z,102951.13
2023-12-13T02:05:45.588Z,102947.28
2023-12-13T02:10:49.307Z,102948.81
2023-12-13T02:15:52.296Z,102947.94
2023-12-13T02:20:55.090Z,102947.13
2023-12-13T02:26:08.960Z,102946.69
2023-12-13T02:31:12.202Z,102947.69
2023-12-13T02:36:14.892Z,102954.66
2023-12-13T02:41:17.544Z,102944.88
2023-12-13T02:46:20.192Z,102946.28
2023-12-13T02:51:22.816Z,102947.25
2023-12-13T02:56:25.308Z,102946.94
2023-12-13T03:01:28.909Z,102957.25
2023-12-13T03:06:31.491Z,102957.97
2023-12-13T03:11:34.154Z,102950.19
2023-12-13T03:16:36.752Z,102958.09
2023-12-13T03:21:39.386Z,102957.53
2023-12-13T03:26:42.127Z,102960.22
2023-12-13T03:31:44.905Z,102956.00
2023-12-13T03:36:48.524Z,102960.53
2023-12-13T03:41:51.111Z,102957.31
2023-12-13T03:46:55.815Z,102955.69
2023-12-13T03:51:58.540Z,102959.91
2023-12-13T03:57:01.121Z,102958.09
2023-12-13T04:02:05.432Z,102956.78
2023-12-13T04:07:10.637Z,102964.28
2023-12-13T04:12:13.149Z,102962.03
2023-12-13T04:17:15.946Z,102963.56
2023-12-13T04:22:18.642Z,102949.06
2023-12-13T04:27:21.257Z,102958.00
2023-12-13T04:32:23.848Z,102964.56
2023-12-13T04:37:26.527Z,102958.81
2023-12-13T04:42:29.101Z,102963.66
2023-12-13T04:47:31.973Z,102952.81
2023-12-13T04:52:34.711Z,102950.31
2023-12-13T04:57:37.312Z,102961.28
2023-12-13T05:02:41.435Z,102943.38
2023-12-13T05:07:44.072Z,102950.41
2023-12-13T05:12:46.690Z,102951.84
2023-12-13T05:17:49.575Z,102953.81
2023-12-13T05:22:52.468Z,102962.28
2023-12-13T05:27:55.209Z,102945.41
2023-12-13T05:32:58.321Z,102950.59
2023-12-13T05:38:01.650Z,102956.19
2023-12-13T05:43:04.147Z,102947.09
2023-12-13T05:48:07.587Z,102956.06
2023-12-13T05:53:10.249Z,102955.16
2023-12-13T05:58:12.762Z,102949.13
2023-12-13T06:03:15.280Z,102946.69
2023-12-13T06:08:17.858Z,102936.88
2023-12-13T06:13:20.569Z,102942.47
2023-12-13T06:18:23.547Z,102940.41
2023-12-13T06:23:26.277Z,102949.31
2023-12-13T06:28:29.020Z,102946.63
2023-12-13T06:33:31.891Z,102947.56
2023-12-13T06:38:35.030Z,102952.69
2023-12-13T06:43:37.508Z,102955.16
2023-12-13T06:48:40.296Z,102954.44
2023-12-13T06:53:42.987Z,102945.84
2023-12-13T06:58:46.026Z,102953.50
2023-12-13T07:03:49.031Z,102953.63
2023-12-13T07:08:51.885Z,102956.16
2023-12-13T07:13:54.564Z,102955.53
2023-12-13T07:18:57.256Z,102953.03
2023-12-13T07:23:59.792Z,102962.94
2023-12-13T07:29:02.730Z,102956.53
2023-12-13T07:34:05.464Z,102948.31
2023-12-13T07:39:09.491Z,102947.94
2023-12-13T07:44:12.174Z,102945.81
2023-12-13T07:49:15.601Z,102946.69
2023-12-13T07:54:18.372Z,102940.88
2023-12-13T07:59:22.461Z,102926.53
2023-12-13T08:04:25.137Z,102927.34
2023-12-13T08:09:27.924Z,102920.66
2023-12-13T08:14:33.114Z,102912.25
2023-12-13T08:19:37.194Z,102910.25
2023-12-13T08:24:40.057Z,102893.53
2023-12-13T08:29:42.813Z,102899.66
2023-12-13T08:34:46.790Z,102907.13
2023-12-13T08:39:50.758Z,102897.53
2023-12-13T08:44:53.333Z,102913.69
2023-12-13T08:49:56.411Z,102907.44
2023-12-13T08:54:59.036Z,102891.50
2023-12-13T09:00:08.794Z,102900.50
2023-12-13T09:05:13.284Z,102891.56
2023-12-13T09:10:15.993Z,102888.06
2023-12-13T09:15:20.161Z,102886.03
2023-12-13T09:20:22.998Z,102889.81
2023-12-13T09:25:27.034Z,102893.31
2023-12-13T09:30:29.638Z,102877.28
2023-12-13T09:35:32.341Z,102882.97
2023-12-13T09:40:35.172Z,102868.09
2023-12-13T09:45:40.648Z,102863.91
2023-12-13T09:50:45.523Z,102866.34
2023-12-13T09:55:49.109Z,102856.38
2023-12-13T10:00:51.814Z,102851.72
2023-12-13T10:05:58.866Z,102847.97
2023-12-13T10:11:02.385Z,102846.22
2023-12-13T10:16:10.416Z,102849.53
2023-12-13T10:21:14.107Z,102840.06
2023-12-13T10:26:16.704Z,102833.09
2023-12-13T10:31:23.478Z,102840.06
2023-12-13T10:36:27.893Z,102843.31
2023-12-13T10:41:32.054Z,102839.47
2023-12-13T10:46:47.781Z,102856.13
2023-12-13T10:51:52.121Z,102845.94
2023-12-13T10:56:57.238Z,102839.81
2023-12-13T11:02:00.466Z,102837.72
2023-12-13T11:07:09.995Z,102831.03
2023-12-13T11:12:13.730Z,102838.69
2023-12-13T11:17:16.634Z,102831.03
2023-12-13T11:22:25.297Z,102829.34
2023-12-13T11:27:33.435Z,102834.03
2023-12-13T11:32:37.680Z,102821.19
2023-12-13T11:37:42.002Z,102824.91
2023-12-13T11:42:44.779Z,102825.31
2023-12-13T11:47:49.439Z,102846.28
2023-12-13T11:52:52.343Z,102840.78
2023-12-13T11:57:59.835Z,102843.34
2023-12-13T12:03:02.584Z,102820.41
2023-12-13T12:08:08.464Z,102822.09
2023-12-13T12:13:13.034Z,102824.56
2023-12-13T12:18:16.647Z,102835.28
2023-12-13T12:23:19.835Z,102842.16
2023-12-13T12:28:22.636Z,102842.19
2023-12-13T12:33:25.588Z,102844.47
2023-12-13T12:38:28.368Z,102837.00
2023-12-13T12:43:31.066Z,102833.81
2023-12-13T12:48:34.667Z,102837.34
2023-12-13T12:53:37.522Z,102816.88
2023-12-13T12:58:40.435Z,102825.56
2023-12-13T13:03:43.343Z,102834.06
2023-12-13T13:08:46.278Z,102847.84
2023-12-13T13:13:49.048Z,102860.41
2023-12-13T13:18:51.717Z,102854.94
2023-12-13T13:23:54.497Z,102853.56
2023-12-13T13:28:57.883Z,102861.41
2023-12-13T13:34:01.184Z,102866.69
2023-12-13T13:39:04.173Z,102863.59
2023-12-13T13:44:07.217Z,102868.38
2023-12-13T13:49:10.309Z,102865.47
2023-12-13T13:54:13.147Z,102868.03
2023-12-13T13:59:15.785Z,102860.75
2023-12-13T14:04:18.490Z,102854.25
2023-12-13T14:09:21.263Z,102862.50
2023-12-13T14:14:23.995Z,102876.78
2023-12-13T14:19:26.932Z,102860.63
2023-12-13T14:24:29.634Z,102865.97
2023-12-13T14:29:33.520Z,102859.41
2023-12-13T14:34:36.224Z,102861.03
2023-12-13T14:39:38.924Z,102871.03
2023-12-13T14:44:41.639Z,102860.00
2023-12-13T14:49:44.603Z,102869.41
2023-12-13T14:54:47.534Z,102871.13
2023-12-13T14:59:53.270Z,102869.81
2023-12-13T15:04:57.413Z,102866.53
2023-12-13T15:10:01.033Z,102881.34
2023-12-13T15:15:04.509Z,102876.41
2023-12-13T15:20:11.290Z,102879.38
2023-12-13T15:25:17.068Z,102882.53
2023-12-13T15:30:22.408Z,102892.06
2023-12-13T15:35:25.011Z,102887.75
2023-12-13T15:40:27.608Z,102893.63
2023-12-13T15:45:30.267Z,102885.81
2023-12-13T15:50:32.936Z,102885.91
2023-12-13T15:55:35.550Z,102868.91
2023-12-13T16:00:38.801Z,102883.59
2023-12-13T16:05:41.390Z,102896.19
2023-12-13T16:10:48.191Z,102892.09
2023-12-13T16:15:52.859Z,102878.59
2023-12-13T16:20:56.009Z,102880.41
2023-12-13T16:25:59.099Z,102873.25
2023-12-13T16:31:02.665Z,102882.78
2023-12-13T16:36:07.117Z,102876.16
2023-12-13T16:41:09.932Z,102877.56
2023-12-13T16:46:14.487Z,102863.56
2023-12-13T16:51:21.036Z,102859.91
2023-12-13T16:56:23.672Z,102863.63
2023-12-13T17:01:26.337Z,102858.28
2023-12-13T17:06:29.692Z,102863.50
2023-12-13T17:11:32.649Z,102862.97
2023-12-13T17:16:35.291Z,102849.72
2023-12-13T17:21:41.036Z,102852.88
2023-12-13T17:26:44.993Z,102849.03
2023-12-13T17:31:49.180Z,102861.63
2023-12-13T17:36:53.073Z,102860.91
2023-12-13T17:41:56.033Z,102874.25
2023-12-13T17:47:00.225Z,102871.50
2023-12-13T17:52:09.544Z,102873.16
2023-12-13T17:57:16.858Z,102867.09
2023-12-13T18:02:22.050Z,102881.22
2023-12-13T18:07:25.899Z,102871.09
2023-12-13T18:12:29.300Z,102869.03
2023-12-13T18:17:32.810Z,102857.97
2023-12-13T18:22:36.547Z,102869.13
2023-12-13T18:27:39.364Z,102863.25
2023-12-13T18:32:42.480Z,102867.94
2023-12-13T18:37:46.874Z,102879.53
2023-12-13T18:42:51.024Z,102876.25
2023-12-13T18:47:53.767Z,102873.44
2023-12-13T18:52:56.439Z,102864.31
2023-12-13T18:57:59.087Z,102858.13
2023-12-13T19:03:01.663Z,102845.56
2023-12-13T19:08:04.692Z,102855.88
2023-12-13T19:13:07.356Z,102861.22
2023-12-13T19:18:10.493Z,102866.34
2023-12-13T19:23:14.481Z,102871.81
2023-12-13T19:28:17.083Z,102867.81
2023-12-13T19:33:19.635Z,102870.38
2023-12-13T19:38:22.167Z,102865.25
2023-12-13T19:43:24.885Z,102870.06
2023-12-13T19:48:27.582Z,102863.66
2023-12-13T19:53:30.178Z,102878.63
2023-12-13T19:58:32.869Z,102889.03
2023-12-13T20:03:35.429Z,102883.59
2023-12-13T20:08:38.075Z,102890.06
2023-12-13T20:13:49.907Z,102889.66
2023-12-13T20:18:56.681Z,102897.81
2023-12-13T20:24:00.835Z,102902.06
2023-12-13T20:29:04.801Z,102898.69
2023-12-13T20:34:08.409Z,102888.88
2023-12-13T20:39:11.097Z,102879.00
2023-12-13T20:44:13.731Z,102889.25
2023-12-13T20:49:16.386Z,102894.81
2023-12-13T20:54:18.959Z,102892.69
2023-12-13T20:59:21.597Z,102874.19
2023-12-13T21:04:24.097Z,102887.34
2023-12-13T21:09:26.627Z,102894.97
2023-12-13T21:14:29.150Z,102891.25
2023-12-13T21:19:31.918Z,102883.97
2023-12-13T21:24:34.559Z,102887.25
2023-12-13T21:29:37.305Z,102891.56
2023-12-13T21:34:40.122Z,102908.91
2023-12-13T21:39:42.867Z,102896.25
2023-12-13T21:44:45.493Z,102888.47
2023-12-13T21:49:48.418Z,102887.59
2023-12-13T21:54:50.852Z,102895.47
2023-12-13T21:59:53.424Z,102908.53
2023-12-13T22:04:56.095Z,102905.31
2023-12-13T22:09:58.703Z,102899.16
2023-12-13T22:15:01.488Z,102888.78
2023-12-13T22:20:17.157Z,102891.41
2023-12-13T22:25:20.117Z,102892.69
2023-12-13T22:30:23.237Z,102894.41
2023-12-13T22:35:26.023Z,102891.28
2023-12-13T22:40:28.680Z,102893.63
2023-12-13T22:45:31.279Z,102900.03
2023-12-13T22:50:34.018Z,102886.06
2023-12-13T22:55:36.594Z,102901.91
2023-12-13T23:00:39.599Z,102912.13
2023-12-13T23:05:42.594Z,102904.22
2023-12-13T23:10:45.279Z,102901.00
2023-12-13T23:15:48.789Z,102898.63
2023-12-13T23:20:51.508Z,102901.94
2023-12-13T23:25:55.011Z,102896.47
2023-12-13T23:30:57.732Z,102897.19
2023-12-13T23:36:00.321Z,102916.31
2023-12-13T23:41:03.056Z,102915.75
2023-12-13T23:46:09.583Z,102908.81
2023-12-13T23:51:12.180Z,102912.53
2023-12-13T23:56:21.454Z,102905.47
